sensor_id;sensor_type;location;lat;lon;timestamp;pressure;altitude;pressure_sealevel;temperature;humidity
37170;BME280;23062;13.952;100.608;2023-04-21T00:04:00;1006.01;;;33.11;53.17
37170;BME280;23062;13.952;100.608;2023-04-21T00:08:28;1006.03;;;33.09;53.26
37170;BME280;23062;13.952;100.608;2023-04-21T00:12:53;1006.16;;;33.12;53.30
37170;BME280;23062;13.952;100.608;2023-04-21T00:17:21;1006.23;;;33.12;53.51
37170;BME280;23062;13.952;100.608;2023-04-21T00:21:47;1006.28;;;33.15;53.49
37170;BME280;23062;13.952;100.608;2023-04-21T00:26:12;1006.35;;;33.17;53.41
37170;BME280;23062;13.952;100.608;2023-04-21T00:30:39;1006.46;;;33.18;53.22
37170;BME280;23062;13.952;100.608;2023-04-21T00:35:04;1006.48;;;33.20;53.17
37170;BME280;23062;13.952;100.608;2023-04-21T00:39:36;1006.59;;;33.21;53.11
37170;BME280;23062;13.952;100.608;2023-04-21T00:44:05;1006.69;;;33.21;53.06
37170;BME280;23062;13.952;100.608;2023-04-21T00:48:31;1006.78;;;33.23;52.79
37170;BME280;23062;13.952;100.608;2023-04-21T00:52:58;1006.81;;;33.18;53.30
37170;BME280;23062;13.952;100.608;2023-04-21T00:57:32;1006.83;;;33.21;52.75
37170;BME280;23062;13.952;100.608;2023-04-21T01:02:00;1006.95;;;33.22;52.92
37170;BME280;23062;13.952;100.608;2023-04-21T01:06:31;1007.12;;;33.20;53.18
37170;BME280;23062;13.952;100.608;2023-04-21T01:10:57;1007.19;;;32.98;53.65
37170;BME280;23062;13.952;100.608;2023-04-21T01:15:22;1007.24;;;32.98;53.61
37170;BME280;23062;13.952;100.608;2023-04-21T01:19:50;1007.39;;;33.02;53.61
37170;BME280;23062;13.952;100.608;2023-04-21T01:24:21;1007.49;;;33.02;54.16
37170;BME280;23062;13.952;100.608;2023-04-21T01:28:47;1007.53;;;33.06;54.47
37170;BME280;23062;13.952;100.608;2023-04-21T01:33:12;1007.57;;;33.08;55.19
37170;BME280;23062;13.952;100.608;2023-04-21T01:37:37;1007.58;;;33.08;55.20
37170;BME280;23062;13.952;100.608;2023-04-21T01:42:02;1007.56;;;33.11;55.04
37170;BME280;23062;13.952;100.608;2023-04-21T01:46:27;1007.54;;;33.11;54.44
37170;BME280;23062;13.952;100.608;2023-04-21T01:51:03;1007.56;;;33.17;54.46
37170;BME280;23062;13.952;100.608;2023-04-21T01:55:23;1007.63;;;33.21;54.74
37170;BME280;23062;13.952;100.608;2023-04-21T02:04:29;1007.69;;;33.25;54.50
37170;BME280;23062;13.952;100.608;2023-04-21T02:08:51;1007.78;;;33.31;54.41
37170;BME280;23062;13.952;100.608;2023-04-21T02:13:19;1007.76;;;33.41;54.10
37170;BME280;23062;13.952;100.608;2023-04-21T02:17:46;1007.69;;;33.40;54.00
37170;BME280;23062;13.952;100.608;2023-04-21T02:26:44;1007.72;;;33.41;53.76
37170;BME280;23062;13.952;100.608;2023-04-21T02:31:10;1007.70;;;33.43;52.85
37170;BME280;23062;13.952;100.608;2023-04-21T02:35:37;1007.73;;;33.48;52.54
37170;BME280;23062;13.952;100.608;2023-04-21T02:40:02;1007.81;;;33.47;52.35
37170;BME280;23062;13.952;100.608;2023-04-21T02:44:28;1007.71;;;33.53;51.74
37170;BME280;23062;13.952;100.608;2023-04-21T02:48:57;1007.69;;;33.53;51.96
37170;BME280;23062;13.952;100.608;2023-04-21T02:53:23;1007.68;;;33.56;51.92
37170;BME280;23062;13.952;100.608;2023-04-21T02:57:48;1007.69;;;33.59;52.06
37170;BME280;23062;13.952;100.608;2023-04-21T03:02:13;1007.73;;;33.61;51.78
37170;BME280;23062;13.952;100.608;2023-04-21T03:06:38;1007.65;;;33.65;51.65
37170;BME280;23062;13.952;100.608;2023-04-21T03:11:04;1007.59;;;33.67;51.66
37170;BME280;23062;13.952;100.608;2023-04-21T03:15:29;1007.58;;;33.69;51.38
37170;BME280;23062;13.952;100.608;2023-04-21T03:19:55;1007.66;;;33.69;51.61
37170;BME280;23062;13.952;100.608;2023-04-21T03:24:20;1007.58;;;33.72;51.54
37170;BME280;23062;13.952;100.608;2023-04-21T03:28:45;1007.52;;;33.76;51.37
37170;BME280;23062;13.952;100.608;2023-04-21T03:33:11;1007.54;;;33.77;51.06
37170;BME280;23062;13.952;100.608;2023-04-21T03:37:39;1007.40;;;33.79;50.93
37170;BME280;23062;13.952;100.608;2023-04-21T03:42:09;1007.36;;;33.80;50.43
37170;BME280;23062;13.952;100.608;2023-04-21T03:46:34;1007.30;;;33.81;50.11
37170;BME280;23062;13.952;100.608;2023-04-21T03:51:01;1007.27;;;33.89;49.56
37170;BME280;23062;13.952;100.608;2023-04-21T03:55:27;1007.18;;;33.91;49.72
37170;BME280;23062;13.952;100.608;2023-04-21T03:59:54;1007.10;;;33.93;52.34
37170;BME280;23062;13.952;100.608;2023-04-21T04:04:30;1007.06;;;33.95;50.81
37170;BME280;23062;13.952;100.608;2023-04-21T04:08:56;1007.01;;;33.94;50.83
37170;BME280;23062;13.952;100.608;2023-04-21T04:13:22;1006.98;;;33.99;49.96
37170;BME280;23062;13.952;100.608;2023-04-21T04:17:48;1006.95;;;34.01;49.66
37170;BME280;23062;13.952;100.608;2023-04-21T04:22:13;1006.94;;;34.02;49.49
37170;BME280;23062;13.952;100.608;2023-04-21T04:26:40;1006.87;;;34.04;49.10
37170;BME280;23062;13.952;100.608;2023-04-21T04:31:05;1006.72;;;34.03;49.52
37170;BME280;23062;13.952;100.608;2023-04-21T04:35:34;1006.64;;;34.04;49.30
37170;BME280;23062;13.952;100.608;2023-04-21T04:40:04;1006.54;;;34.09;48.91
37170;BME280;23062;13.952;100.608;2023-04-21T04:44:33;1006.46;;;34.13;48.71
37170;BME280;23062;13.952;100.608;2023-04-21T04:48:59;1006.40;;;34.11;49.02
37170;BME280;23062;13.952;100.608;2023-04-21T04:53:26;1006.35;;;34.15;48.76
37170;BME280;23062;13.952;100.608;2023-04-21T04:57:53;1006.25;;;34.17;48.46
37170;BME280;23062;13.952;100.608;2023-04-21T05:02:19;1006.16;;;34.22;47.20
37170;BME280;23062;13.952;100.608;2023-04-21T05:06:46;1006.12;;;34.22;47.38
37170;BME280;23062;13.952;100.608;2023-04-21T05:11:12;1006.04;;;34.25;47.61
37170;BME280;23062;13.952;100.608;2023-04-21T05:15:41;1005.98;;;34.25;47.08
37170;BME280;23062;13.952;100.608;2023-04-21T05:20:08;1005.92;;;34.27;46.64
37170;BME280;23062;13.952;100.608;2023-04-21T05:24:33;1005.81;;;34.30;46.54
37170;BME280;23062;13.952;100.608;2023-04-21T05:28:59;1005.70;;;34.34;46.42
37170;BME280;23062;13.952;100.608;2023-04-21T05:33:24;1005.55;;;34.31;46.36
37170;BME280;23062;13.952;100.608;2023-04-21T05:37:50;1005.50;;;34.37;45.89
37170;BME280;23062;13.952;100.608;2023-04-21T05:42:15;1005.36;;;34.39;45.57
37170;BME280;23062;13.952;100.608;2023-04-21T05:46:42;1005.34;;;34.42;44.85
37170;BME280;23062;13.952;100.608;2023-04-21T05:51:09;1005.20;;;34.39;44.60
37170;BME280;23062;13.952;100.608;2023-04-21T05:55:36;1005.14;;;34.43;43.82
37170;BME280;23062;13.952;100.608;2023-04-21T06:00:02;1005.07;;;34.49;43.55
37170;BME280;23062;13.952;100.608;2023-04-21T06:04:27;1004.94;;;34.47;43.52
37170;BME280;23062;13.952;100.608;2023-04-21T06:08:53;1004.78;;;34.53;42.98
37170;BME280;23062;13.952;100.608;2023-04-21T06:13:18;1004.70;;;34.55;42.67
37170;BME280;23062;13.952;100.608;2023-04-21T06:17:53;1004.59;;;34.54;42.99
37170;BME280;23062;13.952;100.608;2023-04-21T06:22:22;1004.42;;;34.54;43.28
37170;BME280;23062;13.952;100.608;2023-04-21T06:26:47;1004.30;;;34.53;43.40
37170;BME280;23062;13.952;100.608;2023-04-21T06:31:13;1004.13;;;34.53;43.54
37170;BME280;23062;13.952;100.608;2023-04-21T06:35:42;1004.06;;;34.55;43.27
37170;BME280;23062;13.952;100.608;2023-04-21T06:40:10;1003.92;;;34.63;42.55
37170;BME280;23062;13.952;100.608;2023-04-21T06:44:40;1003.79;;;34.64;42.35
37170;BME280;23062;13.952;100.608;2023-04-21T06:49:06;1003.67;;;34.66;41.56
37170;BME280;23062;13.952;100.608;2023-04-21T06:53:31;1003.63;;;34.69;41.74
37170;BME280;23062;13.952;100.608;2023-04-21T06:58:02;1003.47;;;34.66;41.87
37170;BME280;23062;13.952;100.608;2023-04-21T07:02:26;1003.46;;;34.76;41.45
37170;BME280;23062;13.952;100.608;2023-04-21T07:06:52;1003.32;;;34.74;41.89
37170;BME280;23062;13.952;100.608;2023-04-21T07:11:24;1003.30;;;34.74;41.53
37170;BME280;23062;13.952;100.608;2023-04-21T07:15:55;1003.17;;;34.75;41.78
37170;BME280;23062;13.952;100.608;2023-04-21T07:20:28;1003.12;;;34.74;41.70
37170;BME280;23062;13.952;100.608;2023-04-21T07:24:52;1003.01;;;34.79;41.61
37170;BME280;23062;13.952;100.608;2023-04-21T07:29:17;1002.85;;;34.80;41.43
37170;BME280;23062;13.952;100.608;2023-04-21T07:33:43;1002.85;;;34.83;41.32
37170;BME280;23062;13.952;100.608;2023-04-21T07:38:14;1002.76;;;34.81;41.17
37170;BME280;23062;13.952;100.608;2023-04-21T07:42:43;1002.60;;;34.77;41.11
37170;BME280;23062;13.952;100.608;2023-04-21T07:47:10;1002.58;;;34.82;40.68
37170;BME280;23062;13.952;100.608;2023-04-21T07:51:36;1002.47;;;34.81;40.96
37170;BME280;23062;13.952;100.608;2023-04-21T07:56:02;1002.36;;;34.84;40.43
37170;BME280;23062;13.952;100.608;2023-04-21T08:00:31;1002.39;;;34.91;40.49
37170;BME280;23062;13.952;100.608;2023-04-21T08:04:58;1002.31;;;34.87;41.00
37170;BME280;23062;13.952;100.608;2023-04-21T08:09:26;1002.27;;;34.91;41.18
37170;BME280;23062;13.952;100.608;2023-04-21T08:13:54;1002.08;;;34.96;40.87
37170;BME280;23062;13.952;100.608;2023-04-21T08:18:22;1002.01;;;35.01;40.92
37170;BME280;23062;13.952;100.608;2023-04-21T08:22:47;1001.94;;;35.05;41.19
37170;BME280;23062;13.952;100.608;2023-04-21T08:27:13;1001.91;;;35.06;41.33
37170;BME280;23062;13.952;100.608;2023-04-21T08:31:38;1001.80;;;35.07;41.35
37170;BME280;23062;13.952;100.608;2023-04-21T08:36:03;1001.71;;;35.09;41.72
37170;BME280;23062;13.952;100.608;2023-04-21T08:40:35;1001.70;;;35.11;41.83
37170;BME280;23062;13.952;100.608;2023-04-21T08:45:02;1001.67;;;35.14;42.02
37170;BME280;23062;13.952;100.608;2023-04-21T08:49:29;1001.71;;;35.13;42.48
37170;BME280;23062;13.952;100.608;2023-04-21T08:53:55;1001.68;;;35.11;42.75
37170;BME280;23062;13.952;100.608;2023-04-21T08:58:21;1001.63;;;35.12;42.65
37170;BME280;23062;13.952;100.608;2023-04-21T09:02:56;1001.53;;;35.09;42.69
37170;BME280;23062;13.952;100.608;2023-04-21T09:07:33;1001.55;;;35.15;41.91
37170;BME280;23062;13.952;100.608;2023-04-21T09:11:59;1001.54;;;35.12;41.92
37170;BME280;23062;13.952;100.608;2023-04-21T09:16:27;1001.59;;;35.15;41.43
37170;BME280;23062;13.952;100.608;2023-04-21T09:21:03;1001.57;;;35.16;41.06
37170;BME280;23062;13.952;100.608;2023-04-21T09:25:22;1001.58;;;35.15;39.90
37170;BME280;23062;13.952;100.608;2023-04-21T09:30:00;1001.64;;;35.11;40.26
37170;BME280;23062;13.952;100.608;2023-04-21T09:34:23;1001.59;;;35.12;39.85
37170;BME280;23062;13.952;100.608;2023-04-21T09:38:59;1001.61;;;35.10;39.35
37170;BME280;23062;13.952;100.608;2023-04-21T09:43:16;1001.56;;;35.11;38.72
37170;BME280;23062;13.952;100.608;2023-04-21T09:47:42;1001.53;;;35.12;38.81
37170;BME280;23062;13.952;100.608;2023-04-21T09:52:10;1001.51;;;35.11;38.72
37170;BME280;23062;13.952;100.608;2023-04-21T09:56:37;1001.50;;;35.06;39.20
37170;BME280;23062;13.952;100.608;2023-04-21T10:01:04;1001.49;;;35.06;38.81
37170;BME280;23062;13.952;100.608;2023-04-21T10:05:30;1001.44;;;35.05;38.30
37170;BME280;23062;13.952;100.608;2023-04-21T10:09:58;1001.43;;;35.03;37.94
37170;BME280;23062;13.952;100.608;2023-04-21T10:14:26;1001.44;;;35.00;37.46
37170;BME280;23062;13.952;100.608;2023-04-21T10:18:51;1001.51;;;35.01;36.29
37170;BME280;23062;13.952;100.608;2023-04-21T10:23:28;1001.53;;;35.00;36.49
37170;BME280;23062;13.952;100.608;2023-04-21T10:27:54;1001.49;;;34.99;37.27
37170;BME280;23062;13.952;100.608;2023-04-21T10:32:43;1001.41;;;34.98;37.49
37170;BME280;23062;13.952;100.608;2023-04-21T10:37:09;1001.39;;;35.00;37.30
37170;BME280;23062;13.952;100.608;2023-04-21T10:41:35;1001.38;;;34.97;37.95
37170;BME280;23062;13.952;100.608;2023-04-21T10:46:29;1001.44;;;34.96;37.55
37170;BME280;23062;13.952;100.608;2023-04-21T10:50:43;1001.41;;;34.96;36.74
37170;BME280;23062;13.952;100.608;2023-04-21T10:55:04;1001.45;;;34.98;36.15
37170;BME280;23062;13.952;100.608;2023-04-21T10:59:34;1001.48;;;34.96;36.53
37170;BME280;23062;13.952;100.608;2023-04-21T11:04:01;1001.48;;;34.95;36.07
37170;BME280;23062;13.952;100.608;2023-04-21T11:08:26;1001.50;;;34.92;36.18
37170;BME280;23062;13.952;100.608;2023-04-21T11:12:56;1001.52;;;34.90;36.47
37170;BME280;23062;13.952;100.608;2023-04-21T11:17:28;1001.54;;;34.89;36.18
37170;BME280;23062;13.952;100.608;2023-04-21T11:21:55;1001.52;;;34.91;35.97
37170;BME280;23062;13.952;100.608;2023-04-21T11:26:34;1001.55;;;34.91;36.12
37170;BME280;23062;13.952;100.608;2023-04-21T11:31:01;1001.69;;;34.90;36.73
37170;BME280;23062;13.952;100.608;2023-04-21T11:35:28;1001.72;;;34.88;36.50
37170;BME280;23062;13.952;100.608;2023-04-21T11:40:02;1001.78;;;34.88;36.35
37170;BME280;23062;13.952;100.608;2023-04-21T11:44:40;1001.79;;;34.86;36.56
37170;BME280;23062;13.952;100.608;2023-04-21T11:49:09;1001.72;;;34.83;36.88
37170;BME280;23062;13.952;100.608;2023-04-21T11:53:35;1001.83;;;34.85;36.36
37170;BME280;23062;13.952;100.608;2023-04-21T11:58:03;1001.96;;;34.83;36.07
37170;BME280;23062;13.952;100.608;2023-04-21T12:02:30;1002.06;;;34.79;35.59
37170;BME280;23062;13.952;100.608;2023-04-21T12:07:00;1002.08;;;34.78;35.79
37170;BME280;23062;13.952;100.608;2023-04-21T12:11:32;1002.20;;;34.77;35.86
37170;BME280;23062;13.952;100.608;2023-04-21T12:15:55;1002.20;;;34.75;35.83
37170;BME280;23062;13.952;100.608;2023-04-21T12:20:23;1002.30;;;34.73;36.01
37170;BME280;23062;13.952;100.608;2023-04-21T12:24:49;1002.38;;;34.69;36.08
37170;BME280;23062;13.952;100.608;2023-04-21T12:29:15;1002.45;;;34.66;35.84
37170;BME280;23062;13.952;100.608;2023-04-21T12:33:41;1002.52;;;34.65;35.91
37170;BME280;23062;13.952;100.608;2023-04-21T12:38:08;1002.60;;;34.65;35.50
37170;BME280;23062;13.952;100.608;2023-04-21T12:42:34;1002.73;;;34.61;35.88
37170;BME280;23062;13.952;100.608;2023-04-21T12:47:07;1002.80;;;34.59;36.27
37170;BME280;23062;13.952;100.608;2023-04-21T12:51:32;1002.84;;;34.56;37.07
37170;BME280;23062;13.952;100.608;2023-04-21T12:55:59;1002.95;;;34.56;37.37
37170;BME280;23062;13.952;100.608;2023-04-21T13:00:24;1003.05;;;34.58;37.49
37170;BME280;23062;13.952;100.608;2023-04-21T13:04:51;1003.10;;;34.56;37.97
37170;BME280;23062;13.952;100.608;2023-04-21T13:09:17;1003.18;;;34.56;38.55
37170;BME280;23062;13.952;100.608;2023-04-21T13:13:43;1003.24;;;34.57;38.74
37170;BME280;23062;13.952;100.608;2023-04-21T13:18:08;1003.25;;;34.57;39.19
37170;BME280;23062;13.952;100.608;2023-04-21T13:22:37;1003.28;;;34.55;39.79
37170;BME280;23062;13.952;100.608;2023-04-21T13:27:03;1003.41;;;34.54;40.49
37170;BME280;23062;13.952;100.608;2023-04-21T13:31:29;1003.43;;;34.51;41.17
37170;BME280;23062;13.952;100.608;2023-04-21T13:35:56;1003.40;;;34.54;41.76
37170;BME280;23062;13.952;100.608;2023-04-21T13:40:26;1003.38;;;34.55;42.55
37170;BME280;23062;13.952;100.608;2023-04-21T13:44:51;1003.37;;;34.55;43.14
37170;BME280;23062;13.952;100.608;2023-04-21T13:49:18;1003.38;;;34.55;43.60
37170;BME280;23062;13.952;100.608;2023-04-21T13:53:46;1003.49;;;34.56;44.09
37170;BME280;23062;13.952;100.608;2023-04-21T14:03:33;1003.61;;;34.61;44.68
37170;BME280;23062;13.952;100.608;2023-04-21T14:08:04;1003.67;;;34.57;44.88
37170;BME280;23062;13.952;100.608;2023-04-21T14:12:26;1003.74;;;34.56;44.97
37170;BME280;23062;13.952;100.608;2023-04-21T14:16:53;1003.70;;;34.55;45.04
37170;BME280;23062;13.952;100.608;2023-04-21T14:21:18;1003.73;;;34.55;45.16
37170;BME280;23062;13.952;100.608;2023-04-21T14:25:45;1003.78;;;34.57;45.28
37170;BME280;23062;13.952;100.608;2023-04-21T14:30:12;1003.89;;;34.56;45.38
37170;BME280;23062;13.952;100.608;2023-04-21T14:34:39;1003.99;;;34.55;45.56
37170;BME280;23062;13.952;100.608;2023-04-21T14:39:05;1004.06;;;34.67;45.74
37170;BME280;23062;13.952;100.608;2023-04-21T14:43:30;1004.09;;;34.75;45.27
37170;BME280;23062;13.952;100.608;2023-04-21T14:47:59;1004.25;;;34.75;45.49
37170;BME280;23062;13.952;100.608;2023-04-21T14:52:25;1004.43;;;34.74;45.61
37170;BME280;23062;13.952;100.608;2023-04-21T14:56:50;1004.47;;;34.75;45.78
37170;BME280;23062;13.952;100.608;2023-04-21T15:01:18;1004.63;;;34.76;45.90
37170;BME280;23062;13.952;100.608;2023-04-21T15:05:44;1004.67;;;34.75;45.98
37170;BME280;23062;13.952;100.608;2023-04-21T15:10:11;1004.74;;;34.76;46.26
37170;BME280;23062;13.952;100.608;2023-04-21T15:14:37;1004.80;;;34.74;46.42
37170;BME280;23062;13.952;100.608;2023-04-21T15:19:05;1004.88;;;34.73;46.79
37170;BME280;23062;13.952;100.608;2023-04-21T15:23:30;1004.92;;;34.71;47.13
37170;BME280;23062;13.952;100.608;2023-04-21T15:27:56;1005.00;;;34.73;47.36
37170;BME280;23062;13.952;100.608;2023-04-21T15:32:25;1005.01;;;34.70;47.25
37170;BME280;23062;13.952;100.608;2023-04-21T15:36:51;1005.04;;;34.70;47.49
37170;BME280;23062;13.952;100.608;2023-04-21T15:41:17;1005.05;;;34.68;47.59
37170;BME280;23062;13.952;100.608;2023-04-21T15:45:43;1005.10;;;34.71;48.15
37170;BME280;23062;13.952;100.608;2023-04-21T15:50:09;1005.07;;;34.71;48.00
37170;BME280;23062;13.952;100.608;2023-04-21T15:54:37;1005.15;;;34.69;48.63
37170;BME280;23062;13.952;100.608;2023-04-21T15:59:10;1005.08;;;34.69;49.22
37170;BME280;23062;13.952;100.608;2023-04-21T16:03:39;1005.08;;;34.70;49.54
37170;BME280;23062;13.952;100.608;2023-04-21T16:08:04;1005.08;;;34.68;49.70
37170;BME280;23062;13.952;100.608;2023-04-21T16:12:29;1005.16;;;34.67;49.60
37170;BME280;23062;13.952;100.608;2023-04-21T16:16:54;1005.20;;;34.65;49.90
37170;BME280;23062;13.952;100.608;2023-04-21T16:21:20;1005.20;;;34.68;50.12
37170;BME280;23062;13.952;100.608;2023-04-21T16:25:45;1005.07;;;34.67;50.14
37170;BME280;23062;13.952;100.608;2023-04-21T16:30:10;1005.09;;;34.65;50.57
37170;BME280;23062;13.952;100.608;2023-04-21T16:34:37;1005.07;;;34.64;50.63
37170;BME280;23062;13.952;100.608;2023-04-21T16:39:09;1005.06;;;34.62;50.85
37170;BME280;23062;13.952;100.608;2023-04-21T16:43:35;1005.01;;;34.63;50.93
37170;BME280;23062;13.952;100.608;2023-04-21T16:48:04;1005.05;;;34.61;51.07
37170;BME280;23062;13.952;100.608;2023-04-21T16:52:29;1005.06;;;34.60;51.12
37170;BME280;23062;13.952;100.608;2023-04-21T16:56:58;1005.08;;;34.62;51.57
37170;BME280;23062;13.952;100.608;2023-04-21T17:01:31;1005.12;;;34.61;51.76
37170;BME280;23062;13.952;100.608;2023-04-21T17:05:56;1005.11;;;34.59;51.85
37170;BME280;23062;13.952;100.608;2023-04-21T17:10:23;1005.05;;;34.58;51.88
37170;BME280;23062;13.952;100.608;2023-04-21T17:14:55;1005.01;;;34.58;51.51
37170;BME280;23062;13.952;100.608;2023-04-21T17:19:21;1005.02;;;34.59;52.02
37170;BME280;23062;13.952;100.608;2023-04-21T17:23:46;1004.97;;;34.60;52.04
37170;BME280;23062;13.952;100.608;2023-04-21T17:28:12;1004.96;;;34.57;52.20
37170;BME280;23062;13.952;100.608;2023-04-21T17:32:38;1004.90;;;34.58;52.40
37170;BME280;23062;13.952;100.608;2023-04-21T17:37:05;1004.89;;;34.56;52.44
37170;BME280;23062;13.952;100.608;2023-04-21T17:41:30;1004.81;;;34.55;52.35
37170;BME280;23062;13.952;100.608;2023-04-21T17:45:56;1004.86;;;34.54;52.38
37170;BME280;23062;13.952;100.608;2023-04-21T17:50:21;1004.76;;;34.56;52.37
37170;BME280;23062;13.952;100.608;2023-04-21T17:54:48;1004.67;;;34.53;52.31
37170;BME280;23062;13.952;100.608;2023-04-21T17:59:16;1004.64;;;34.53;52.13
37170;BME280;23062;13.952;100.608;2023-04-21T18:03:41;1004.63;;;34.52;52.38
37170;BME280;23062;13.952;100.608;2023-04-21T18:08:14;1004.63;;;34.50;52.52
37170;BME280;23062;13.952;100.608;2023-04-21T18:12:44;1004.62;;;34.49;52.32
37170;BME280;23062;13.952;100.608;2023-04-21T18:17:09;1004.63;;;34.49;52.67
37170;BME280;23062;13.952;100.608;2023-04-21T18:21:35;1004.58;;;34.49;52.50
37170;BME280;23062;13.952;100.608;2023-04-21T18:26:00;1004.61;;;34.49;52.57
37170;BME280;23062;13.952;100.608;2023-04-21T18:30:28;1004.64;;;34.48;52.64
37170;BME280;23062;13.952;100.608;2023-04-21T18:34:55;1004.55;;;34.48;52.76
37170;BME280;23062;13.952;100.608;2023-04-21T18:39:38;1004.51;;;34.47;52.59
37170;BME280;23062;13.952;100.608;2023-04-21T18:44:04;1004.56;;;34.46;52.70
37170;BME280;23062;13.952;100.608;2023-04-21T18:48:28;1004.53;;;34.45;52.86
37170;BME280;23062;13.952;100.608;2023-04-21T18:52:54;1004.52;;;34.43;53.05
37170;BME280;23062;13.952;100.608;2023-04-21T18:57:18;1004.49;;;34.41;53.13
37170;BME280;23062;13.952;100.608;2023-04-21T19:01:46;1004.45;;;34.41;53.17
37170;BME280;23062;13.952;100.608;2023-04-21T19:06:14;1004.42;;;34.40;53.25
37170;BME280;23062;13.952;100.608;2023-04-21T19:10:42;1004.46;;;34.39;53.26
37170;BME280;23062;13.952;100.608;2023-04-21T19:15:10;1004.53;;;34.39;53.47
37170;BME280;23062;13.952;100.608;2023-04-21T19:19:36;1004.53;;;34.37;53.46
37170;BME280;23062;13.952;100.608;2023-04-21T19:24:03;1004.47;;;34.37;53.56
37170;BME280;23062;13.952;100.608;2023-04-21T19:28:35;1004.47;;;34.36;53.37
37170;BME280;23062;13.952;100.608;2023-04-21T19:33:01;1004.45;;;34.37;53.72
37170;BME280;23062;13.952;100.608;2023-04-21T19:37:27;1004.41;;;34.34;53.80
37170;BME280;23062;13.952;100.608;2023-04-21T19:41:53;1004.39;;;34.37;53.71
37170;BME280;23062;13.952;100.608;2023-04-21T19:46:20;1004.34;;;34.36;53.78
37170;BME280;23062;13.952;100.608;2023-04-21T19:50:46;1004.26;;;34.36;53.85
37170;BME280;23062;13.952;100.608;2023-04-21T19:55:11;1004.28;;;34.26;53.61
37170;BME280;23062;13.952;100.608;2023-04-21T19:59:36;1004.24;;;34.31;54.00
37170;BME280;23062;13.952;100.608;2023-04-21T20:04:02;1004.23;;;34.33;54.13
37170;BME280;23062;13.952;100.608;2023-04-21T20:08:30;1004.23;;;34.33;54.26
37170;BME280;23062;13.952;100.608;2023-04-21T20:12:55;1004.22;;;34.33;54.19
37170;BME280;23062;13.952;100.608;2023-04-21T20:17:20;1004.29;;;34.32;54.28
37170;BME280;23062;13.952;100.608;2023-04-21T20:21:48;1004.26;;;34.30;54.32
37170;BME280;23062;13.952;100.608;2023-04-21T20:26:19;1004.27;;;34.30;54.28
37170;BME280;23062;13.952;100.608;2023-04-21T20:30:46;1004.24;;;34.29;54.62
37170;BME280;23062;13.952;100.608;2023-04-21T20:35:12;1004.25;;;34.31;54.97
37170;BME280;23062;13.952;100.608;2023-04-21T20:39:38;1004.26;;;34.06;54.77
37170;BME280;23062;13.952;100.608;2023-04-21T20:44:07;1004.26;;;33.91;55.93
37170;BME280;23062;13.952;100.608;2023-04-21T20:48:38;1004.36;;;33.85;56.62
37170;BME280;23062;13.952;100.608;2023-04-21T20:53:04;1004.37;;;33.80;57.07
37170;BME280;23062;13.952;100.608;2023-04-21T20:57:31;1004.36;;;33.83;57.07
37170;BME280;23062;13.952;100.608;2023-04-21T21:02:02;1004.36;;;33.79;57.54
37170;BME280;23062;13.952;100.608;2023-04-21T21:06:29;1004.37;;;33.76;58.00
37170;BME280;23062;13.952;100.608;2023-04-21T21:11:00;1004.39;;;33.74;58.23
37170;BME280;23062;13.952;100.608;2023-04-21T21:15:23;1004.39;;;33.71;58.61
37170;BME280;23062;13.952;100.608;2023-04-21T21:19:49;1004.50;;;33.69;58.92
37170;BME280;23062;13.952;100.608;2023-04-21T21:24:19;1004.58;;;33.70;59.13
37170;BME280;23062;13.952;100.608;2023-04-21T21:28:46;1004.68;;;33.67;59.44
37170;BME280;23062;13.952;100.608;2023-04-21T21:33:15;1004.77;;;33.68;59.25
37170;BME280;23062;13.952;100.608;2023-04-21T21:37:41;1004.83;;;33.68;59.39
37170;BME280;23062;13.952;100.608;2023-04-21T21:42:07;1004.89;;;33.65;59.67
37170;BME280;23062;13.952;100.608;2023-04-21T21:46:36;1004.91;;;33.61;59.75
37170;BME280;23062;13.952;100.608;2023-04-21T21:51:13;1004.91;;;33.64;59.79
37170;BME280;23062;13.952;100.608;2023-04-21T21:55:43;1004.91;;;33.66;59.89
37170;BME280;23062;13.952;100.608;2023-04-21T22:00:10;1004.94;;;33.62;60.00
37170;BME280;23062;13.952;100.608;2023-04-21T22:04:40;1005.06;;;33.61;60.15
37170;BME280;23062;13.952;100.608;2023-04-21T22:09:08;1005.15;;;33.62;60.22
37170;BME280;23062;13.952;100.608;2023-04-21T22:13:33;1005.27;;;33.59;60.36
37170;BME280;23062;13.952;100.608;2023-04-21T22:17:59;1005.24;;;33.56;60.47
37170;BME280;23062;13.952;100.608;2023-04-21T22:22:24;1005.24;;;33.57;61.09
37170;BME280;23062;13.952;100.608;2023-04-21T22:26:57;1005.34;;;33.58;61.58
37170;BME280;23062;13.952;100.608;2023-04-21T22:31:26;1005.38;;;33.56;61.62
37170;BME280;23062;13.952;100.608;2023-04-21T22:35:51;1005.41;;;33.53;61.67
37170;BME280;23062;13.952;100.608;2023-04-21T22:40:17;1005.46;;;33.51;61.91
37170;BME280;23062;13.952;100.608;2023-04-21T22:44:46;1005.42;;;33.50;61.97
37170;BME280;23062;13.952;100.608;2023-04-21T22:49:18;1005.47;;;33.46;61.93
37170;BME280;23062;13.952;100.608;2023-04-21T22:58:15;1005.60;;;33.46;62.16
37170;BME280;23062;13.952;100.608;2023-04-21T23:02:47;1005.62;;;33.40;62.57
37170;BME280;23062;13.952;100.608;2023-04-21T23:07:11;1005.65;;;33.37;62.76
37170;BME280;23062;13.952;100.608;2023-04-21T23:11:39;1005.71;;;33.44;62.49
37170;BME280;23062;13.952;100.608;2023-04-21T23:16:11;1005.77;;;33.41;62.71
37170;BME280;23062;13.952;100.608;2023-04-21T23:20:39;1005.78;;;33.39;62.69
37170;BME280;23062;13.952;100.608;2023-04-21T23:25:13;1005.85;;;33.40;62.76
37170;BME280;23062;13.952;100.608;2023-04-21T23:29:41;1005.93;;;33.42;62.66
37170;BME280;23062;13.952;100.608;2023-04-21T23:34:17;1005.99;;;33.43;62.85
37170;BME280;23062;13.952;100.608;2023-04-21T23:38:40;1006.00;;;33.42;63.06